sensor_id;sensor_type;location;lat;lon;timestamp;temperature;humidity
6824;DHT22;58633;49.470;11.004;2022-08-20T00:02:12;19.20;99.90
6824;DHT22;58633;49.470;11.004;2022-08-20T00:04:39;19.20;99.90
6824;DHT22;58633;49.470;11.004;2022-08-20T00:07:06;19.20;99.90
6824;DHT22;58633;49.470;11.004;2022-08-20T00:09:31;19.20;99.90
6824;DHT22;58633;49.470;11.004;2022-08-20T00:11:59;19.20;99.90
6824;DHT22;58633;49.470;11.004;2022-08-20T00:14:25;19.10;99.90
6824;DHT22;58633;49.470;11.004;2022-08-20T00:16:51;19.20;99.90
6824;DHT22;58633;49.470;11.004;2022-08-20T00:21:42;19.20;99.90
6824;DHT22;58633;49.470;11.004;2022-08-20T00:24:08;19.20;99.90
6824;DHT22;58633;49.470;11.004;2022-08-20T00:26:34;19.20;99.90
6824;DHT22;58633;49.470;11.004;2022-08-20T00:29:00;19.20;99.90
6824;DHT22;58633;49.470;11.004;2022-08-20T00:31:26;19.10;99.90
6824;DHT22;58633;49.470;11.004;2022-08-20T00:33:52;19.00;99.90
6824;DHT22;58633;49.470;11.004;2022-08-20T00:38:45;19.20;99.90
6824;DHT22;58633;49.470;11.004;2022-08-20T00:41:20;19.10;99.90
6824;DHT22;58633;49.470;11.004;2022-08-20T00:43:52;19.10;99.90
6824;DHT22;58633;49.470;11.004;2022-08-20T00:46:27;19.10;99.90
6824;DHT22;58633;49.470;11.004;2022-08-20T00:48:54;19.20;99.90
6824;DHT22;58633;49.470;11.004;2022-08-20T00:51:34;18.90;99.90
6824;DHT22;58633;49.470;11.004;2022-08-20T00:54:08;19.00;99.90
6824;DHT22;58633;49.470;11.004;2022-08-20T00:56:36;19.10;99.90
6824;DHT22;58633;49.470;11.004;2022-08-20T00:59:04;19.10;99.90
6824;DHT22;58633;49.470;11.004;2022-08-20T01:01:37;19.30;99.90
6824;DHT22;58633;49.470;11.004;2022-08-20T01:04:03;19.20;99.90
6824;DHT22;58633;49.470;11.004;2022-08-20T01:08:56;19.10;99.90
6824;DHT22;58633;49.470;11.004;2022-08-20T01:11:22;19.30;99.90
6824;DHT22;58633;49.470;11.004;2022-08-20T01:13:56;19.10;99.90
6824;DHT22;58633;49.470;11.004;2022-08-20T01:16:30;19.10;99.90
6824;DHT22;58633;49.470;11.004;2022-08-20T01:18:57;19.10;99.90
6824;DHT22;58633;49.470;11.004;2022-08-20T01:21:25;19.00;99.90
6824;DHT22;58633;49.470;11.004;2022-08-20T01:24:13;19.10;99.90
6824;DHT22;58633;49.470;11.004;2022-08-20T01:26:42;19.10;99.90
6824;DHT22;58633;49.470;11.004;2022-08-20T01:29:23;19.00;99.90
6824;DHT22;58633;49.470;11.004;2022-08-20T01:31:50;19.00;99.90
6824;DHT22;58633;49.470;11.004;2022-08-20T01:34:18;19.10;99.90
6824;DHT22;58633;49.470;11.004;2022-08-20T01:36:46;19.10;99.90
6824;DHT22;58633;49.470;11.004;2022-08-20T01:39:15;19.00;99.90
6824;DHT22;58633;49.470;11.004;2022-08-20T01:44:17;19.00;99.90
6824;DHT22;58633;49.470;11.004;2022-08-20T01:46:46;18.70;99.90
6824;DHT22;58633;49.470;11.004;2022-08-20T01:49:17;18.90;99.90
6824;DHT22;58633;49.470;11.004;2022-08-20T01:51:43;18.90;99.90
6824;DHT22;58633;49.470;11.004;2022-08-20T01:54:08;19.10;99.90
6824;DHT22;58633;49.470;11.004;2022-08-20T01:56:35;19.00;99.90
6824;DHT22;58633;49.470;11.004;2022-08-20T01:59:14;18.60;99.90
6824;DHT22;58633;49.470;11.004;2022-08-20T02:01:39;18.90;99.90
6824;DHT22;58633;49.470;11.004;2022-08-20T02:04:08;19.00;99.90
6824;DHT22;58633;49.470;11.004;2022-08-20T02:06:41;18.90;99.90
6824;DHT22;58633;49.470;11.004;2022-08-20T02:09:09;18.70;99.90
6824;DHT22;58633;49.470;11.004;2022-08-20T02:11:36;18.60;99.90
6824;DHT22;58633;49.470;11.004;2022-08-20T02:14:04;18.70;99.90
6824;DHT22;58633;49.470;11.004;2022-08-20T02:16:33;18.70;99.90
6824;DHT22;58633;49.470;11.004;2022-08-20T02:19:12;18.60;99.90
6824;DHT22;58633;49.470;11.004;2022-08-20T02:21:43;18.70;99.90
6824;DHT22;58633;49.470;11.004;2022-08-20T02:24:10;18.70;99.90
6824;DHT22;58633;49.470;11.004;2022-08-20T02:26:36;18.70;99.90
6824;DHT22;58633;49.470;11.004;2022-08-20T02:29:04;19.00;99.90
6824;DHT22;58633;49.470;11.004;2022-08-20T02:31:31;18.90;99.90
6824;DHT22;58633;49.470;11.004;2022-08-20T02:33:57;19.00;99.90
6824;DHT22;58633;49.470;11.004;2022-08-20T02:36:22;18.50;99.90
6824;DHT22;58633;49.470;11.004;2022-08-20T02:38:48;18.80;99.90
6824;DHT22;58633;49.470;11.004;2022-08-20T02:41:13;18.60;99.90
6824;DHT22;58633;49.470;11.004;2022-08-20T02:43:39;18.70;99.90
6824;DHT22;58633;49.470;11.004;2022-08-20T02:46:06;18.70;99.90
6824;DHT22;58633;49.470;11.004;2022-08-20T02:48:32;18.70;99.90
6824;DHT22;58633;49.470;11.004;2022-08-20T02:51:00;18.70;99.90
6824;DHT22;58633;49.470;11.004;2022-08-20T02:53:29;18.70;99.90
6824;DHT22;58633;49.470;11.004;2022-08-20T02:55:55;18.80;99.90
6824;DHT22;58633;49.470;11.004;2022-08-20T02:58:21;18.80;99.90
6824;DHT22;58633;49.470;11.004;2022-08-20T03:00:47;18.60;99.90
6824;DHT22;58633;49.470;11.004;2022-08-20T03:03:14;18.50;99.90
6824;DHT22;58633;49.470;11.004;2022-08-20T03:05:42;18.60;99.90
6824;DHT22;58633;49.470;11.004;2022-08-20T03:08:10;18.90;99.90
6824;DHT22;58633;49.470;11.004;2022-08-20T03:10:37;18.60;99.90
6824;DHT22;58633;49.470;11.004;2022-08-20T03:13:05;18.40;99.90
6824;DHT22;58633;49.470;11.004;2022-08-20T03:15:33;18.70;99.90
6824;DHT22;58633;49.470;11.004;2022-08-20T03:17:58;18.80;99.90
6824;DHT22;58633;49.470;11.004;2022-08-20T03:20:26;18.80;99.90
6824;DHT22;58633;49.470;11.004;2022-08-20T03:22:52;18.70;99.90
6824;DHT22;58633;49.470;11.004;2022-08-20T03:25:18;18.60;99.90
6824;DHT22;58633;49.470;11.004;2022-08-20T03:27:44;18.70;99.90
6824;DHT22;58633;49.470;11.004;2022-08-20T03:30:12;18.60;99.90
6824;DHT22;58633;49.470;11.004;2022-08-20T03:32:38;18.60;99.90
6824;DHT22;58633;49.470;11.004;2022-08-20T03:35:05;18.70;99.90
6824;DHT22;58633;49.470;11.004;2022-08-20T03:37:33;18.90;99.90
6824;DHT22;58633;49.470;11.004;2022-08-20T03:40:00;18.80;99.90
6824;DHT22;58633;49.470;11.004;2022-08-20T03:44:53;18.50;99.90
6824;DHT22;58633;49.470;11.004;2022-08-20T03:47:19;18.70;99.90
6824;DHT22;58633;49.470;11.004;2022-08-20T03:49:45;18.60;99.90
6824;DHT22;58633;49.470;11.004;2022-08-20T03:52:12;18.70;99.90
6824;DHT22;58633;49.470;11.004;2022-08-20T03:54:37;18.80;99.90
6824;DHT22;58633;49.470;11.004;2022-08-20T03:57:03;18.50;99.90
6824;DHT22;58633;49.470;11.004;2022-08-20T03:59:29;18.60;99.90
6824;DHT22;58633;49.470;11.004;2022-08-20T04:01:57;18.40;99.90
6824;DHT22;58633;49.470;11.004;2022-08-20T04:04:24;18.70;99.90
6824;DHT22;58633;49.470;11.004;2022-08-20T04:06:50;18.70;99.90
6824;DHT22;58633;49.470;11.004;2022-08-20T04:09:15;18.70;99.90
6824;DHT22;58633;49.470;11.004;2022-08-20T04:11:41;18.70;99.90
6824;DHT22;58633;49.470;11.004;2022-08-20T04:14:08;18.60;99.90
6824;DHT22;58633;49.470;11.004;2022-08-20T04:16:34;18.80;99.90
6824;DHT22;58633;49.470;11.004;2022-08-20T04:19:00;18.70;99.90
6824;DHT22;58633;49.470;11.004;2022-08-20T04:21:28;18.50;99.90
6824;DHT22;58633;49.470;11.004;2022-08-20T04:23:53;18.80;99.90
6824;DHT22;58633;49.470;11.004;2022-08-20T04:26:19;18.70;99.90
6824;DHT22;58633;49.470;11.004;2022-08-20T04:28:46;18.80;99.90
6824;DHT22;58633;49.470;11.004;2022-08-20T04:31:13;18.70;99.90
6824;DHT22;58633;49.470;11.004;2022-08-20T04:33:38;18.80;99.90
6824;DHT22;58633;49.470;11.004;2022-08-20T04:36:06;18.30;99.90
6824;DHT22;58633;49.470;11.004;2022-08-20T04:38:32;18.70;99.90
6824;DHT22;58633;49.470;11.004;2022-08-20T04:40:58;18.70;99.90
6824;DHT22;58633;49.470;11.004;2022-08-20T04:43:33;18.60;99.90
6824;DHT22;58633;49.470;11.004;2022-08-20T04:46:05;18.90;99.90
6824;DHT22;58633;49.470;11.004;2022-08-20T04:48:31;18.70;99.90
6824;DHT22;58633;49.470;11.004;2022-08-20T04:50:58;18.70;99.90
6824;DHT22;58633;49.470;11.004;2022-08-20T04:53:25;18.90;99.90
6824;DHT22;58633;49.470;11.004;2022-08-20T04:55:55;18.80;99.90
6824;DHT22;58633;49.470;11.004;2022-08-20T04:58:24;18.90;99.90
6824;DHT22;58633;49.470;11.004;2022-08-20T05:00:54;19.10;99.90
6824;DHT22;58633;49.470;11.004;2022-08-20T05:03:21;18.60;99.90
6824;DHT22;58633;49.470;11.004;2022-08-20T05:05:47;18.80;99.90
6824;DHT22;58633;49.470;11.004;2022-08-20T05:08:15;19.30;99.90
6824;DHT22;58633;49.470;11.004;2022-08-20T05:10:41;18.80;99.90
6824;DHT22;58633;49.470;11.004;2022-08-20T05:13:07;18.80;99.90
6824;DHT22;58633;49.470;11.004;2022-08-20T05:15:33;18.90;99.90
6824;DHT22;58633;49.470;11.004;2022-08-20T05:18:00;18.80;99.90
6824;DHT22;58633;49.470;11.004;2022-08-20T05:20:31;18.90;99.90
6824;DHT22;58633;49.470;11.004;2022-08-20T05:22:58;18.70;99.90
6824;DHT22;58633;49.470;11.004;2022-08-20T05:25:24;18.90;99.90
6824;DHT22;58633;49.470;11.004;2022-08-20T05:28:03;18.70;99.90
6824;DHT22;58633;49.470;11.004;2022-08-20T05:30:31;18.80;99.90
6824;DHT22;58633;49.470;11.004;2022-08-20T05:33:00;18.70;99.90
6824;DHT22;58633;49.470;11.004;2022-08-20T05:35:26;18.70;99.90
6824;DHT22;58633;49.470;11.004;2022-08-20T05:40:18;18.90;99.90
6824;DHT22;58633;49.470;11.004;2022-08-20T05:42:45;18.80;99.90
6824;DHT22;58633;49.470;11.004;2022-08-20T05:45:10;18.80;99.90
6824;DHT22;58633;49.470;11.004;2022-08-20T05:47:39;18.80;99.90
6824;DHT22;58633;49.470;11.004;2022-08-20T05:50:07;18.80;99.90
6824;DHT22;58633;49.470;11.004;2022-08-20T05:52:33;18.60;99.90
6824;DHT22;58633;49.470;11.004;2022-08-20T05:55:00;18.80;99.90
6824;DHT22;58633;49.470;11.004;2022-08-20T05:59:51;18.90;99.90
6824;DHT22;58633;49.470;11.004;2022-08-20T06:02:17;18.90;99.90
6824;DHT22;58633;49.470;11.004;2022-08-20T06:05:02;18.90;99.90
6824;DHT22;58633;49.470;11.004;2022-08-20T06:07:28;18.90;99.90
6824;DHT22;58633;49.470;11.004;2022-08-20T06:09:54;18.80;99.90
6824;DHT22;58633;49.470;11.004;2022-08-20T06:12:20;18.80;99.90
6824;DHT22;58633;49.470;11.004;2022-08-20T06:14:45;18.80;99.90
6824;DHT22;58633;49.470;11.004;2022-08-20T06:17:17;18.80;99.90
6824;DHT22;58633;49.470;11.004;2022-08-20T06:19:44;18.80;99.90
6824;DHT22;58633;49.470;11.004;2022-08-20T06:22:11;18.90;99.90
6824;DHT22;58633;49.470;11.004;2022-08-20T06:24:38;18.90;99.90
6824;DHT22;58633;49.470;11.004;2022-08-20T06:27:04;18.90;99.90
6824;DHT22;58633;49.470;11.004;2022-08-20T06:29:30;19.00;99.90
6824;DHT22;58633;49.470;11.004;2022-08-20T06:31:58;19.10;99.90
6824;DHT22;58633;49.470;11.004;2022-08-20T06:34:24;19.10;99.90
6824;DHT22;58633;49.470;11.004;2022-08-20T06:36:53;19.20;99.90
6824;DHT22;58633;49.470;11.004;2022-08-20T06:39:19;19.40;99.90
6824;DHT22;58633;49.470;11.004;2022-08-20T06:41:45;19.40;99.90
6824;DHT22;58633;49.470;11.004;2022-08-20T06:44:11;19.40;99.90
6824;DHT22;58633;49.470;11.004;2022-08-20T06:46:37;19.60;99.90
6824;DHT22;58633;49.470;11.004;2022-08-20T06:49:04;19.60;99.90
6824;DHT22;58633;49.470;11.004;2022-08-20T06:51:30;19.60;99.90
6824;DHT22;58633;49.470;11.004;2022-08-20T06:53:56;19.30;99.90
6824;DHT22;58633;49.470;11.004;2022-08-20T06:56:22;20.20;99.90
6824;DHT22;58633;49.470;11.004;2022-08-20T06:58:48;19.80;99.90
6824;DHT22;58633;49.470;11.004;2022-08-20T07:01:15;19.80;99.90
6824;DHT22;58633;49.470;11.004;2022-08-20T07:03:47;19.80;99.90
6824;DHT22;58633;49.470;11.004;2022-08-20T07:06:15;19.50;99.90
6824;DHT22;58633;49.470;11.004;2022-08-20T07:08:41;19.80;99.90
6824;DHT22;58633;49.470;11.004;2022-08-20T07:11:07;19.80;99.90
6824;DHT22;58633;49.470;11.004;2022-08-20T07:13:33;19.80;99.90
6824;DHT22;58633;49.470;11.004;2022-08-20T07:16:01;19.70;99.90
6824;DHT22;58633;49.470;11.004;2022-08-20T07:18:27;19.70;99.90
6824;DHT22;58633;49.470;11.004;2022-08-20T07:20:52;20.00;99.90
6824;DHT22;58633;49.470;11.004;2022-08-20T07:23:19;20.10;99.90
6824;DHT22;58633;49.470;11.004;2022-08-20T07:25:44;20.00;99.90
6824;DHT22;58633;49.470;11.004;2022-08-20T07:28:18;20.10;99.90
6824;DHT22;58633;49.470;11.004;2022-08-20T07:30:45;20.30;99.90
6824;DHT22;58633;49.470;11.004;2022-08-20T07:33:30;20.50;99.90
6824;DHT22;58633;49.470;11.004;2022-08-20T07:35:58;20.30;99.90
6824;DHT22;58633;49.470;11.004;2022-08-20T07:38:25;20.50;99.90
6824;DHT22;58633;49.470;11.004;2022-08-20T07:40:53;20.40;99.90
6824;DHT22;58633;49.470;11.004;2022-08-20T07:43:20;20.70;99.90
6824;DHT22;58633;49.470;11.004;2022-08-20T07:45:49;20.50;99.90
6824;DHT22;58633;49.470;11.004;2022-08-20T07:48:15;20.70;99.90
6824;DHT22;58633;49.470;11.004;2022-08-20T07:50:41;21.10;99.90
6824;DHT22;58633;49.470;11.004;2022-08-20T07:53:07;20.80;99.90
6824;DHT22;58633;49.470;11.004;2022-08-20T07:55:32;20.90;99.90
6824;DHT22;58633;49.470;11.004;2022-08-20T07:58:05;20.70;99.30
6824;DHT22;58633;49.470;11.004;2022-08-20T08:00:31;20.70;99.80
6824;DHT22;58633;49.470;11.004;2022-08-20T08:02:57;20.50;99.50
6824;DHT22;58633;49.470;11.004;2022-08-20T08:05:22;20.90;99.30
6824;DHT22;58633;49.470;11.004;2022-08-20T08:07:48;21.00;99.50
6824;DHT22;58633;49.470;11.004;2022-08-20T08:10:19;20.70;99.90
6824;DHT22;58633;49.470;11.004;2022-08-20T08:12:52;20.70;98.70
6824;DHT22;58633;49.470;11.004;2022-08-20T08:15:23;21.20;98.80
6824;DHT22;58633;49.470;11.004;2022-08-20T08:17:51;20.40;97.70
6824;DHT22;58633;49.470;11.004;2022-08-20T08:20:18;21.20;99.00
6824;DHT22;58633;49.470;11.004;2022-08-20T08:22:45;20.80;97.40
6824;DHT22;58633;49.470;11.004;2022-08-20T08:25:12;20.70;98.10
6824;DHT22;58633;49.470;11.004;2022-08-20T08:27:39;21.30;99.90
6824;DHT22;58633;49.470;11.004;2022-08-20T08:30:05;21.00;99.10
6824;DHT22;58633;49.470;11.004;2022-08-20T08:32:32;21.00;99.20
6824;DHT22;58633;49.470;11.004;2022-08-20T08:35:03;21.00;98.40
6824;DHT22;58633;49.470;11.004;2022-08-20T08:37:30;21.00;98.50
6824;DHT22;58633;49.470;11.004;2022-08-20T08:39:56;20.70;97.90
6824;DHT22;58633;49.470;11.004;2022-08-20T08:42:33;21.20;98.30
6824;DHT22;58633;49.470;11.004;2022-08-20T08:44:59;20.80;96.90
6824;DHT22;58633;49.470;11.004;2022-08-20T08:47:29;21.80;97.50
6824;DHT22;58633;49.470;11.004;2022-08-20T08:49:56;21.30;95.70
6824;DHT22;58633;49.470;11.004;2022-08-20T08:52:26;21.40;95.10
6824;DHT22;58633;49.470;11.004;2022-08-20T08:54:57;21.60;94.30
6824;DHT22;58633;49.470;11.004;2022-08-20T08:57:23;21.50;93.70
6824;DHT22;58633;49.470;11.004;2022-08-20T08:59:55;21.70;93.70
6824;DHT22;58633;49.470;11.004;2022-08-20T09:02:23;21.80;93.00
6824;DHT22;58633;49.470;11.004;2022-08-20T09:04:51;21.60;93.30
6824;DHT22;58633;49.470;11.004;2022-08-20T09:07:22;22.10;92.20
6824;DHT22;58633;49.470;11.004;2022-08-20T09:09:49;22.00;91.40
6824;DHT22;58633;49.470;11.004;2022-08-20T09:12:18;21.90;90.50
6824;DHT22;58633;49.470;11.004;2022-08-20T09:14:48;21.80;90.90
6824;DHT22;58633;49.470;11.004;2022-08-20T09:17:15;22.10;87.40
6824;DHT22;58633;49.470;11.004;2022-08-20T09:19:41;22.30;87.20
6824;DHT22;58633;49.470;11.004;2022-08-20T09:22:09;22.40;85.90
6824;DHT22;58633;49.470;11.004;2022-08-20T09:24:35;22.20;85.60
6824;DHT22;58633;49.470;11.004;2022-08-20T09:27:02;22.40;84.50
6824;DHT22;58633;49.470;11.004;2022-08-20T09:29:28;22.30;84.20
6824;DHT22;58633;49.470;11.004;2022-08-20T09:32:26;22.40;82.70
6824;DHT22;58633;49.470;11.004;2022-08-20T09:34:53;22.50;81.80
6824;DHT22;58633;49.470;11.004;2022-08-20T09:37:25;22.70;80.80
6824;DHT22;58633;49.470;11.004;2022-08-20T09:39:52;22.40;79.70
6824;DHT22;58633;49.470;11.004;2022-08-20T09:42:29;22.50;78.70
6824;DHT22;58633;49.470;11.004;2022-08-20T09:44:56;22.60;78.50
6824;DHT22;58633;49.470;11.004;2022-08-20T09:47:22;22.90;77.80
6824;DHT22;58633;49.470;11.004;2022-08-20T09:49:48;22.60;75.90
6824;DHT22;58633;49.470;11.004;2022-08-20T09:52:26;22.70;75.70
6824;DHT22;58633;49.470;11.004;2022-08-20T09:54:57;22.70;74.70
6824;DHT22;58633;49.470;11.004;2022-08-20T09:57:24;22.70;74.70
6824;DHT22;58633;49.470;11.004;2022-08-20T09:59:57;23.00;74.60
6824;DHT22;58633;49.470;11.004;2022-08-20T10:02:23;22.80;73.70
6824;DHT22;58633;49.470;11.004;2022-08-20T10:04:49;22.60;73.40
6824;DHT22;58633;49.470;11.004;2022-08-20T10:07:14;22.90;73.60
6824;DHT22;58633;49.470;11.004;2022-08-20T10:09:40;22.70;73.30
6824;DHT22;58633;49.470;11.004;2022-08-20T10:12:06;23.00;73.70
6824;DHT22;58633;49.470;11.004;2022-08-20T10:14:32;22.50;72.60
6824;DHT22;58633;49.470;11.004;2022-08-20T10:16:58;22.50;72.10
6824;DHT22;58633;49.470;11.004;2022-08-20T10:19:24;22.70;72.20
6824;DHT22;58633;49.470;11.004;2022-08-20T10:21:51;22.90;72.40
6824;DHT22;58633;49.470;11.004;2022-08-20T10:24:18;22.70;72.60
6824;DHT22;58633;49.470;11.004;2022-08-20T10:26:45;22.90;72.10
6824;DHT22;58633;49.470;11.004;2022-08-20T10:29:11;23.30;72.20
6824;DHT22;58633;49.470;11.004;2022-08-20T10:31:36;23.00;71.80
6824;DHT22;58633;49.470;11.004;2022-08-20T10:34:02;23.40;71.80
6824;DHT22;58633;49.470;11.004;2022-08-20T10:36:28;23.40;71.30
6824;DHT22;58633;49.470;11.004;2022-08-20T10:38:53;23.50;71.30
6824;DHT22;58633;49.470;11.004;2022-08-20T10:41:19;23.50;70.60
6824;DHT22;58633;49.470;11.004;2022-08-20T10:43:45;22.90;69.70
6824;DHT22;58633;49.470;11.004;2022-08-20T10:46:11;23.80;70.40
6824;DHT22;58633;49.470;11.004;2022-08-20T10:48:37;23.60;69.80
6824;DHT22;58633;49.470;11.004;2022-08-20T10:51:02;23.70;70.10
6824;DHT22;58633;49.470;11.004;2022-08-20T10:53:28;23.40;69.90
6824;DHT22;58633;49.470;11.004;2022-08-20T10:55:55;23.90;69.70
6824;DHT22;58633;49.470;11.004;2022-08-20T10:58:20;23.80;69.60
6824;DHT22;58633;49.470;11.004;2022-08-20T11:00:46;23.80;69.50
6824;DHT22;58633;49.470;11.004;2022-08-20T11:03:12;23.80;69.50
6824;DHT22;58633;49.470;11.004;2022-08-20T11:08:03;24.10;69.50
6824;DHT22;58633;49.470;11.004;2022-08-20T11:10:31;24.20;69.70
6824;DHT22;58633;49.470;11.004;2022-08-20T11:12:58;24.20;69.00
6824;DHT22;58633;49.470;11.004;2022-08-20T11:15:24;24.10;68.80
6824;DHT22;58633;49.470;11.004;2022-08-20T11:17:50;24.50;69.10
6824;DHT22;58633;49.470;11.004;2022-08-20T11:20:18;24.30;68.40
6824;DHT22;58633;49.470;11.004;2022-08-20T11:22:44;24.70;68.70
6824;DHT22;58633;49.470;11.004;2022-08-20T11:25:10;24.80;68.30
6824;DHT22;58633;49.470;11.004;2022-08-20T11:27:39;25.10;68.30
6824;DHT22;58633;49.470;11.004;2022-08-20T11:30:09;24.70;67.30
6824;DHT22;58633;49.470;11.004;2022-08-20T11:32:35;25.40;68.00
6824;DHT22;58633;49.470;11.004;2022-08-20T11:35:01;25.50;67.00
6824;DHT22;58633;49.470;11.004;2022-08-20T11:37:26;25.40;66.50
6824;DHT22;58633;49.470;11.004;2022-08-20T11:39:52;25.80;66.50
6824;DHT22;58633;49.470;11.004;2022-08-20T11:42:18;25.90;65.80
6824;DHT22;58633;49.470;11.004;2022-08-20T11:44:43;26.10;65.50
6824;DHT22;58633;49.470;11.004;2022-08-20T11:47:25;26.50;65.00
6824;DHT22;58633;49.470;11.004;2022-08-20T11:50:00;26.10;64.40
6824;DHT22;58633;49.470;11.004;2022-08-20T11:52:26;26.10;64.40
6824;DHT22;58633;49.470;11.004;2022-08-20T11:54:52;26.00;64.60
6824;DHT22;58633;49.470;11.004;2022-08-20T11:57:22;26.00;64.70
6824;DHT22;58633;49.470;11.004;2022-08-20T11:59:53;25.90;64.60
6824;DHT22;58633;49.470;11.004;2022-08-20T12:02:19;25.60;64.60
6824;DHT22;58633;49.470;11.004;2022-08-20T12:04:44;25.80;65.20
6824;DHT22;58633;49.470;11.004;2022-08-20T12:07:12;25.90;64.20
6824;DHT22;58633;49.470;11.004;2022-08-20T12:12:05;25.70;64.00
6824;DHT22;58633;49.470;11.004;2022-08-20T12:14:30;25.70;64.20
6824;DHT22;58633;49.470;11.004;2022-08-20T12:16:56;25.60;64.00
6824;DHT22;58633;49.470;11.004;2022-08-20T12:19:21;25.70;63.60
6824;DHT22;58633;49.470;11.004;2022-08-20T12:21:47;25.70;62.90
6824;DHT22;58633;49.470;11.004;2022-08-20T12:26:38;25.00;62.20
6824;DHT22;58633;49.470;11.004;2022-08-20T12:29:04;25.30;62.20
6824;DHT22;58633;49.470;11.004;2022-08-20T12:31:29;25.50;61.80
6824;DHT22;58633;49.470;11.004;2022-08-20T12:33:55;25.50;61.00
6824;DHT22;58633;49.470;11.004;2022-08-20T12:41:13;25.30;60.30
6824;DHT22;58633;49.470;11.004;2022-08-20T12:43:38;25.10;60.90
6824;DHT22;58633;49.470;11.004;2022-08-20T12:46:04;24.70;61.60
6824;DHT22;58633;49.470;11.004;2022-08-20T12:50:55;24.10;62.40
6824;DHT22;58633;49.470;11.004;2022-08-20T12:53:21;24.50;63.10
6824;DHT22;58633;49.470;11.004;2022-08-20T12:55:46;24.20;63.00
6824;DHT22;58633;49.470;11.004;2022-08-20T12:58:12;24.00;63.50
6824;DHT22;58633;49.470;11.004;2022-08-20T13:00:41;23.90;64.10
6824;DHT22;58633;49.470;11.004;2022-08-20T13:03:10;23.80;64.60
6824;DHT22;58633;49.470;11.004;2022-08-20T13:05:36;23.40;65.00
6824;DHT22;58633;49.470;11.004;2022-08-20T13:08:06;23.30;65.40
6824;DHT22;58633;49.470;11.004;2022-08-20T13:10:34;23.90;67.00
6824;DHT22;58633;49.470;11.004;2022-08-20T13:13:00;23.40;67.30
6824;DHT22;58633;49.470;11.004;2022-08-20T13:15:28;23.40;68.20
6824;DHT22;58633;49.470;11.004;2022-08-20T13:17:56;23.30;68.40
6824;DHT22;58633;49.470;11.004;2022-08-20T13:20:22;23.20;68.40
6824;DHT22;58633;49.470;11.004;2022-08-20T13:22:52;23.30;68.80
6824;DHT22;58633;49.470;11.004;2022-08-20T13:25:18;23.40;69.30
6824;DHT22;58633;49.470;11.004;2022-08-20T13:27:44;23.80;69.40
6824;DHT22;58633;49.470;11.004;2022-08-20T13:30:17;24.40;69.00
6824;DHT22;58633;49.470;11.004;2022-08-20T13:32:43;24.70;67.50
6824;DHT22;58633;49.470;11.004;2022-08-20T13:35:11;24.60;67.00
6824;DHT22;58633;49.470;11.004;2022-08-20T13:37:38;24.50;67.10
6824;DHT22;58633;49.470;11.004;2022-08-20T13:40:04;24.80;66.90
6824;DHT22;58633;49.470;11.004;2022-08-20T13:42:31;24.50;66.40
6824;DHT22;58633;49.470;11.004;2022-08-20T13:44:57;24.50;66.00
6824;DHT22;58633;49.470;11.004;2022-08-20T13:47:26;24.50;66.10
6824;DHT22;58633;49.470;11.004;2022-08-20T13:50:07;24.40;65.40
6824;DHT22;58633;49.470;11.004;2022-08-20T13:52:35;24.60;65.70
6824;DHT22;58633;49.470;11.004;2022-08-20T13:55:03;24.30;65.30
6824;DHT22;58633;49.470;11.004;2022-08-20T13:57:29;24.30;65.90
6824;DHT22;58633;49.470;11.004;2022-08-20T13:59:57;24.20;65.50
6824;DHT22;58633;49.470;11.004;2022-08-20T14:02:23;24.10;65.50
6824;DHT22;58633;49.470;11.004;2022-08-20T14:04:50;24.10;66.10
6824;DHT22;58633;49.470;11.004;2022-08-20T14:07:24;24.30;66.00
6824;DHT22;58633;49.470;11.004;2022-08-20T14:09:56;24.50;65.80
6824;DHT22;58633;49.470;11.004;2022-08-20T14:12:23;24.40;65.70
6824;DHT22;58633;49.470;11.004;2022-08-20T14:14:50;24.50;66.30
6824;DHT22;58633;49.470;11.004;2022-08-20T14:17:22;24.20;66.80
6824;DHT22;58633;49.470;11.004;2022-08-20T14:19:53;24.40;66.90
6824;DHT22;58633;49.470;11.004;2022-08-20T14:22:19;24.20;66.80
6824;DHT22;58633;49.470;11.004;2022-08-20T14:24:45;24.40;67.60
6824;DHT22;58633;49.470;11.004;2022-08-20T14:27:12;24.30;68.30
6824;DHT22;58633;49.470;11.004;2022-08-20T14:29:40;24.20;68.90
6824;DHT22;58633;49.470;11.004;2022-08-20T14:32:06;24.00;69.10
6824;DHT22;58633;49.470;11.004;2022-08-20T14:34:32;23.60;69.00
6824;DHT22;58633;49.470;11.004;2022-08-20T14:39:46;24.00;70.20
6824;DHT22;58633;49.470;11.004;2022-08-20T14:42:13;23.80;70.40
6824;DHT22;58633;49.470;11.004;2022-08-20T14:44:39;24.00;70.20
6824;DHT22;58633;49.470;11.004;2022-08-20T14:47:10;24.00;70.60
6824;DHT22;58633;49.470;11.004;2022-08-20T14:49:36;25.60;69.50
6824;DHT22;58633;49.470;11.004;2022-08-20T14:52:01;27.30;62.90
6824;DHT22;58633;49.470;11.004;2022-08-20T14:54:27;27.30;63.30
6824;DHT22;58633;49.470;11.004;2022-08-20T14:56:52;28.20;64.20
6824;DHT22;58633;49.470;11.004;2022-08-20T14:59:19;27.40;61.40
6824;DHT22;58633;49.470;11.004;2022-08-20T15:01:45;26.90;61.40
6824;DHT22;58633;49.470;11.004;2022-08-20T15:06:37;26.40;63.00
6824;DHT22;58633;49.470;11.004;2022-08-20T15:09:02;25.90;63.10
6824;DHT22;58633;49.470;11.004;2022-08-20T15:11:28;25.80;63.80
6824;DHT22;58633;49.470;11.004;2022-08-20T15:13:53;25.50;63.90
6824;DHT22;58633;49.470;11.004;2022-08-20T15:16:19;25.00;64.70
6824;DHT22;58633;49.470;11.004;2022-08-20T15:18:44;24.90;64.70
6824;DHT22;58633;49.470;11.004;2022-08-20T15:21:10;24.90;65.20
6824;DHT22;58633;49.470;11.004;2022-08-20T15:26:01;25.00;65.60
6824;DHT22;58633;49.470;11.004;2022-08-20T15:28:27;24.60;65.70
6824;DHT22;58633;49.470;11.004;2022-08-20T15:30:52;24.80;65.60
6824;DHT22;58633;49.470;11.004;2022-08-20T15:33:18;24.60;65.70
6824;DHT22;58633;49.470;11.004;2022-08-20T15:35:45;24.50;64.80
6824;DHT22;58633;49.470;11.004;2022-08-20T15:38:10;25.00;65.40
6824;DHT22;58633;49.470;11.004;2022-08-20T15:40:36;24.40;64.80
6824;DHT22;58633;49.470;11.004;2022-08-20T15:43:03;24.20;65.10
6824;DHT22;58633;49.470;11.004;2022-08-20T15:45:30;24.20;65.70
6824;DHT22;58633;49.470;11.004;2022-08-20T15:48:11;24.00;65.80
6824;DHT22;58633;49.470;11.004;2022-08-20T15:53:47;23.90;66.80
6824;DHT22;58633;49.470;11.004;2022-08-20T16:04:49;23.90;67.70
6824;DHT22;58633;49.470;11.004;2022-08-20T16:07:33;23.80;67.90
6824;DHT22;58633;49.470;11.004;2022-08-20T16:12:42;24.00;68.80
6824;DHT22;58633;49.470;11.004;2022-08-20T16:15:23;23.70;68.20
6824;DHT22;58633;49.470;11.004;2022-08-20T16:20:32;23.90;67.10
6824;DHT22;58633;49.470;11.004;2022-08-20T16:22:59;23.80;66.60
6824;DHT22;58633;49.470;11.004;2022-08-20T16:25:33;23.80;65.50
6824;DHT22;58633;49.470;11.004;2022-08-20T16:28:42;23.80;63.70
6824;DHT22;58633;49.470;11.004;2022-08-20T16:31:14;23.50;62.90